sensor_id;sensor_type;location;lat;lon;timestamp;P1;durP1;ratioP1;P2;durP2;ratioP2
40154;SDS011;25875;48.202;16.334;2024-02-28T00:02:01;7.35;;;4.53;;
40154;SDS011;25875;48.202;16.334;2024-02-28T00:04:27;6.70;;;4.68;;
40154;SDS011;25875;48.202;16.334;2024-02-28T00:06:55;6.35;;;4.28;;
40154;SDS011;25875;48.202;16.334;2024-02-28T00:09:22;6.35;;;4.07;;
40154;SDS011;25875;48.202;16.334;2024-02-28T00:11:49;9.07;;;4.97;;
40154;SDS011;25875;48.202;16.334;2024-02-28T00:14:15;5.47;;;4.40;;
40154;SDS011;25875;48.202;16.334;2024-02-28T00:16:42;5.72;;;4.53;;
40154;SDS011;25875;48.202;16.334;2024-02-28T00:19:09;6.75;;;4.65;;
40154;SDS011;25875;48.202;16.334;2024-02-28T00:21:37;6.30;;;4.70;;
40154;SDS011;25875;48.202;16.334;2024-02-28T00:24:06;5.28;;;4.70;;
40154;SDS011;25875;48.202;16.334;2024-02-28T00:26:33;6.03;;;4.22;;
40154;SDS011;25875;48.202;16.334;2024-02-28T00:28:59;6.80;;;4.47;;
40154;SDS011;25875;48.202;16.334;2024-02-28T00:31:26;7.07;;;4.53;;
40154;SDS011;25875;48.202;16.334;2024-02-28T00:33:53;6.15;;;4.45;;
40154;SDS011;25875;48.202;16.334;2024-02-28T00:36:21;6.30;;;4.85;;
40154;SDS011;25875;48.202;16.334;2024-02-28T00:38:47;7.65;;;5.38;;
40154;SDS011;25875;48.202;16.334;2024-02-28T00:41:15;6.47;;;4.57;;
40154;SDS011;25875;48.202;16.334;2024-02-28T00:43:42;7.95;;;5.05;;
40154;SDS011;25875;48.202;16.334;2024-02-28T00:46:09;7.15;;;5.25;;
40154;SDS011;25875;48.202;16.334;2024-02-28T00:48:37;6.95;;;4.60;;
40154;SDS011;25875;48.202;16.334;2024-02-28T00:51:03;8.38;;;4.65;;
40154;SDS011;25875;48.202;16.334;2024-02-28T00:53:30;5.80;;;4.57;;
40154;SDS011;25875;48.202;16.334;2024-02-28T00:55:57;5.68;;;4.60;;
40154;SDS011;25875;48.202;16.334;2024-02-28T00:58:25;6.20;;;4.28;;
40154;SDS011;25875;48.202;16.334;2024-02-28T01:00:54;10.23;;;4.38;;
40154;SDS011;25875;48.202;16.334;2024-02-28T01:03:21;7.65;;;4.00;;
40154;SDS011;25875;48.202;16.334;2024-02-28T01:05:48;5.63;;;3.80;;
40154;SDS011;25875;48.202;16.334;2024-02-28T01:08:15;5.78;;;3.50;;
40154;SDS011;25875;48.202;16.334;2024-02-28T01:10:42;8.23;;;3.90;;
40154;SDS011;25875;48.202;16.334;2024-02-28T01:13:09;6.80;;;4.90;;
40154;SDS011;25875;48.202;16.334;2024-02-28T01:15:37;6.55;;;3.42;;
40154;SDS011;25875;48.202;16.334;2024-02-28T01:18:05;4.80;;;3.38;;
40154;SDS011;25875;48.202;16.334;2024-02-28T01:20:31;6.15;;;3.83;;
40154;SDS011;25875;48.202;16.334;2024-02-28T01:22:58;5.75;;;3.58;;
40154;SDS011;25875;48.202;16.334;2024-02-28T01:25:25;5.03;;;3.63;;
40154;SDS011;25875;48.202;16.334;2024-02-28T01:27:51;5.05;;;3.58;;
40154;SDS011;25875;48.202;16.334;2024-02-28T01:30:18;6.82;;;4.10;;
40154;SDS011;25875;48.202;16.334;2024-02-28T01:32:46;5.88;;;3.85;;
40154;SDS011;25875;48.202;16.334;2024-02-28T01:35:13;6.80;;;3.92;;
40154;SDS011;25875;48.202;16.334;2024-02-28T01:37:40;5.72;;;3.65;;
40154;SDS011;25875;48.202;16.334;2024-02-28T01:40:07;5.28;;;3.35;;
40154;SDS011;25875;48.202;16.334;2024-02-28T01:42:35;4.97;;;3.03;;
40154;SDS011;25875;48.202;16.334;2024-02-28T01:45:02;4.93;;;3.83;;
40154;SDS011;25875;48.202;16.334;2024-02-28T01:47:29;5.10;;;3.53;;
40154;SDS011;25875;48.202;16.334;2024-02-28T01:49:57;5.38;;;3.65;;
40154;SDS011;25875;48.202;16.334;2024-02-28T01:52:24;5.32;;;3.85;;
40154;SDS011;25875;48.202;16.334;2024-02-28T01:54:51;5.05;;;3.80;;
40154;SDS011;25875;48.202;16.334;2024-02-28T01:57:18;7.32;;;4.47;;
40154;SDS011;25875;48.202;16.334;2024-02-28T01:59:45;4.85;;;3.60;;
40154;SDS011;25875;48.202;16.334;2024-02-28T02:02:12;8.95;;;4.07;;
40154;SDS011;25875;48.202;16.334;2024-02-28T02:04:39;5.97;;;3.85;;
40154;SDS011;25875;48.202;16.334;2024-02-28T02:07:07;6.53;;;3.80;;
40154;SDS011;25875;48.202;16.334;2024-02-28T02:09:34;4.93;;;3.83;;
40154;SDS011;25875;48.202;16.334;2024-02-28T02:12:00;4.72;;;3.75;;
40154;SDS011;25875;48.202;16.334;2024-02-28T02:14:27;5.88;;;3.80;;
40154;SDS011;25875;48.202;16.334;2024-02-28T02:16:54;4.65;;;3.50;;
40154;SDS011;25875;48.202;16.334;2024-02-28T02:19:20;6.22;;;3.10;;
40154;SDS011;25875;48.202;16.334;2024-02-28T02:21:48;5.47;;;3.78;;
40154;SDS011;25875;48.202;16.334;2024-02-28T02:24:19;5.50;;;3.25;;
40154;SDS011;25875;48.202;16.334;2024-02-28T02:26:46;6.10;;;3.70;;
40154;SDS011;25875;48.202;16.334;2024-02-28T02:29:13;6.10;;;3.25;;
40154;SDS011;25875;48.202;16.334;2024-02-28T02:31:39;7.22;;;3.35;;
40154;SDS011;25875;48.202;16.334;2024-02-28T02:34:06;5.50;;;3.33;;
40154;SDS011;25875;48.202;16.334;2024-02-28T02:36:33;5.35;;;3.33;;
40154;SDS011;25875;48.202;16.334;2024-02-28T02:38:59;5.85;;;3.25;;
40154;SDS011;25875;48.202;16.334;2024-02-28T02:41:27;8.10;;;4.03;;
40154;SDS011;25875;48.202;16.334;2024-02-28T02:43:53;4.85;;;3.00;;
40154;SDS011;25875;48.202;16.334;2024-02-28T02:46:20;6.07;;;3.22;;
40154;SDS011;25875;48.202;16.334;2024-02-28T02:48:46;6.78;;;4.18;;
40154;SDS011;25875;48.202;16.334;2024-02-28T02:51:13;6.82;;;4.78;;
40154;SDS011;25875;48.202;16.334;2024-02-28T02:53:40;8.07;;;4.68;;
40154;SDS011;25875;48.202;16.334;2024-02-28T02:56:06;5.80;;;3.83;;
40154;SDS011;25875;48.202;16.334;2024-02-28T02:58:34;6.55;;;3.70;;
40154;SDS011;25875;48.202;16.334;2024-02-28T03:01:01;4.55;;;3.35;;
40154;SDS011;25875;48.202;16.334;2024-02-28T03:03:28;4.90;;;3.17;;
40154;SDS011;25875;48.202;16.334;2024-02-28T03:05:55;7.07;;;3.75;;
40154;SDS011;25875;48.202;16.334;2024-02-28T03:08:22;5.57;;;4.43;;
40154;SDS011;25875;48.202;16.334;2024-02-28T03:10:49;6.28;;;3.60;;
40154;SDS011;25875;48.202;16.334;2024-02-28T03:13:15;6.03;;;3.63;;
40154;SDS011;25875;48.202;16.334;2024-02-28T03:15:45;5.38;;;3.53;;
40154;SDS011;25875;48.202;16.334;2024-02-28T03:18:11;5.68;;;3.92;;
40154;SDS011;25875;48.202;16.334;2024-02-28T03:20:38;5.50;;;3.72;;
40154;SDS011;25875;48.202;16.334;2024-02-28T03:23:04;7.13;;;3.95;;
40154;SDS011;25875;48.202;16.334;2024-02-28T03:25:31;7.25;;;3.97;;
40154;SDS011;25875;48.202;16.334;2024-02-28T03:27:59;11.30;;;4.30;;
40154;SDS011;25875;48.202;16.334;2024-02-28T03:30:26;5.60;;;3.45;;
40154;SDS011;25875;48.202;16.334;2024-02-28T03:32:54;6.35;;;4.70;;
40154;SDS011;25875;48.202;16.334;2024-02-28T03:35:21;8.15;;;5.25;;
40154;SDS011;25875;48.202;16.334;2024-02-28T03:37:47;6.15;;;4.57;;
40154;SDS011;25875;48.202;16.334;2024-02-28T03:40:14;6.35;;;4.35;;
40154;SDS011;25875;48.202;16.334;2024-02-28T03:42:41;8.93;;;6.13;;
40154;SDS011;25875;48.202;16.334;2024-02-28T03:45:08;8.25;;;5.63;;
40154;SDS011;25875;48.202;16.334;2024-02-28T03:47:34;10.60;;;5.97;;
40154;SDS011;25875;48.202;16.334;2024-02-28T03:50:03;9.40;;;7.05;;
40154;SDS011;25875;48.202;16.334;2024-02-28T03:52:30;8.27;;;6.72;;
40154;SDS011;25875;48.202;16.334;2024-02-28T03:54:56;10.68;;;8.60;;
40154;SDS011;25875;48.202;16.334;2024-02-28T03:57:23;10.68;;;8.55;;
40154;SDS011;25875;48.202;16.334;2024-02-28T03:59:50;10.00;;;8.23;;
40154;SDS011;25875;48.202;16.334;2024-02-28T04:02:16;12.73;;;9.30;;
40154;SDS011;25875;48.202;16.334;2024-02-28T04:04:43;11.85;;;9.27;;
40154;SDS011;25875;48.202;16.334;2024-02-28T04:07:11;14.25;;;10.45;;
40154;SDS011;25875;48.202;16.334;2024-02-28T04:09:37;12.07;;;9.45;;
40154;SDS011;25875;48.202;16.334;2024-02-28T04:12:04;14.30;;;11.02;;
40154;SDS011;25875;48.202;16.334;2024-02-28T04:14:31;14.13;;;12.32;;
40154;SDS011;25875;48.202;16.334;2024-02-28T04:16:58;14.18;;;11.75;;
40154;SDS011;25875;48.202;16.334;2024-02-28T04:19:24;14.45;;;11.48;;
40154;SDS011;25875;48.202;16.334;2024-02-28T04:21:51;14.13;;;11.50;;
40154;SDS011;25875;48.202;16.334;2024-02-28T04:24:19;15.13;;;12.60;;
40154;SDS011;25875;48.202;16.334;2024-02-28T04:26:46;14.75;;;11.20;;
40154;SDS011;25875;48.202;16.334;2024-02-28T04:29:13;17.35;;;12.95;;
40154;SDS011;25875;48.202;16.334;2024-02-28T04:31:39;14.82;;;13.23;;
40154;SDS011;25875;48.202;16.334;2024-02-28T04:34:06;15.73;;;12.45;;
40154;SDS011;25875;48.202;16.334;2024-02-28T04:36:33;15.73;;;13.13;;
40154;SDS011;25875;48.202;16.334;2024-02-28T04:38:59;18.80;;;14.45;;
40154;SDS011;25875;48.202;16.334;2024-02-28T04:41:28;14.38;;;12.88;;
40154;SDS011;25875;48.202;16.334;2024-02-28T04:43:54;16.45;;;12.60;;
40154;SDS011;25875;48.202;16.334;2024-02-28T04:46:21;15.82;;;13.63;;
40154;SDS011;25875;48.202;16.334;2024-02-28T04:48:48;32.65;;;22.02;;
40154;SDS011;25875;48.202;16.334;2024-02-28T04:51:15;33.38;;;22.70;;
40154;SDS011;25875;48.202;16.334;2024-02-28T04:53:42;28.98;;;20.92;;
40154;SDS011;25875;48.202;16.334;2024-02-28T04:56:09;21.25;;;16.08;;
40154;SDS011;25875;48.202;16.334;2024-02-28T04:58:37;16.95;;;14.23;;
40154;SDS011;25875;48.202;16.334;2024-02-28T05:01:04;20.42;;;15.23;;
40154;SDS011;25875;48.202;16.334;2024-02-28T05:03:31;16.67;;;13.77;;
40154;SDS011;25875;48.202;16.334;2024-02-28T05:05:57;15.98;;;14.07;;
40154;SDS011;25875;48.202;16.334;2024-02-28T05:08:24;16.77;;;13.57;;
40154;SDS011;25875;48.202;16.334;2024-02-28T05:10:52;20.38;;;15.13;;
40154;SDS011;25875;48.202;16.334;2024-02-28T05:13:19;17.20;;;14.00;;
40154;SDS011;25875;48.202;16.334;2024-02-28T05:15:48;17.30;;;14.63;;
40154;SDS011;25875;48.202;16.334;2024-02-28T05:18:15;18.52;;;14.88;;
40154;SDS011;25875;48.202;16.334;2024-02-28T05:20:42;19.10;;;15.82;;
40154;SDS011;25875;48.202;16.334;2024-02-28T05:23:09;18.45;;;14.98;;
40154;SDS011;25875;48.202;16.334;2024-02-28T05:25:35;18.00;;;16.10;;
40154;SDS011;25875;48.202;16.334;2024-02-28T05:28:01;18.50;;;15.30;;
40154;SDS011;25875;48.202;16.334;2024-02-28T05:30:28;17.55;;;14.73;;
40154;SDS011;25875;48.202;16.334;2024-02-28T05:32:56;16.98;;;14.70;;
40154;SDS011;25875;48.202;16.334;2024-02-28T05:35:22;18.30;;;15.57;;
40154;SDS011;25875;48.202;16.334;2024-02-28T05:37:52;17.42;;;14.18;;
40154;SDS011;25875;48.202;16.334;2024-02-28T05:40:19;18.17;;;15.70;;
40154;SDS011;25875;48.202;16.334;2024-02-28T05:42:46;18.98;;;16.17;;
40154;SDS011;25875;48.202;16.334;2024-02-28T05:45:13;18.38;;;15.50;;
40154;SDS011;25875;48.202;16.334;2024-02-28T05:47:39;17.33;;;14.73;;
40154;SDS011;25875;48.202;16.334;2024-02-28T05:50:08;18.77;;;15.02;;
40154;SDS011;25875;48.202;16.334;2024-02-28T05:52:36;19.02;;;15.48;;
40154;SDS011;25875;48.202;16.334;2024-02-28T05:55:03;19.27;;;16.13;;
40154;SDS011;25875;48.202;16.334;2024-02-28T05:57:30;17.70;;;15.70;;
40154;SDS011;25875;48.202;16.334;2024-02-28T05:59:56;20.80;;;16.30;;
40154;SDS011;25875;48.202;16.334;2024-02-28T06:02:23;20.15;;;16.85;;
40154;SDS011;25875;48.202;16.334;2024-02-28T06:04:50;20.30;;;16.52;;
40154;SDS011;25875;48.202;16.334;2024-02-28T06:07:19;19.42;;;16.27;;
40154;SDS011;25875;48.202;16.334;2024-02-28T06:09:45;20.70;;;16.13;;
40154;SDS011;25875;48.202;16.334;2024-02-28T06:12:12;20.95;;;17.52;;
40154;SDS011;25875;48.202;16.334;2024-02-28T06:14:39;21.05;;;17.40;;
40154;SDS011;25875;48.202;16.334;2024-02-28T06:17:05;20.40;;;16.70;;
40154;SDS011;25875;48.202;16.334;2024-02-28T06:19:32;21.65;;;17.92;;
40154;SDS011;25875;48.202;16.334;2024-02-28T06:21:59;22.05;;;17.27;;
40154;SDS011;25875;48.202;16.334;2024-02-28T06:24:26;22.02;;;16.48;;
40154;SDS011;25875;48.202;16.334;2024-02-28T06:26:53;21.45;;;16.13;;
40154;SDS011;25875;48.202;16.334;2024-02-28T06:29:20;22.63;;;18.70;;
40154;SDS011;25875;48.202;16.334;2024-02-28T06:31:49;20.35;;;17.02;;
40154;SDS011;25875;48.202;16.334;2024-02-28T06:34:18;21.48;;;17.65;;
40154;SDS011;25875;48.202;16.334;2024-02-28T06:36:44;21.25;;;17.60;;
40154;SDS011;25875;48.202;16.334;2024-02-28T06:39:11;18.13;;;16.02;;
40154;SDS011;25875;48.202;16.334;2024-02-28T06:41:40;20.23;;;16.95;;
40154;SDS011;25875;48.202;16.334;2024-02-28T06:44:07;21.05;;;17.35;;
40154;SDS011;25875;48.202;16.334;2024-02-28T06:46:34;22.05;;;16.23;;
40154;SDS011;25875;48.202;16.334;2024-02-28T06:49:00;19.02;;;16.58;;
40154;SDS011;25875;48.202;16.334;2024-02-28T06:51:27;23.50;;;19.58;;
40154;SDS011;25875;48.202;16.334;2024-02-28T06:53:53;20.35;;;17.08;;
40154;SDS011;25875;48.202;16.334;2024-02-28T06:56:20;20.98;;;16.50;;
40154;SDS011;25875;48.202;16.334;2024-02-28T06:58:48;21.67;;;17.52;;
40154;SDS011;25875;48.202;16.334;2024-02-28T07:01:15;21.50;;;17.48;;
40154;SDS011;25875;48.202;16.334;2024-02-28T07:03:41;21.45;;;17.05;;
40154;SDS011;25875;48.202;16.334;2024-02-28T07:06:09;22.20;;;18.17;;
40154;SDS011;25875;48.202;16.334;2024-02-28T07:08:35;24.98;;;20.23;;
40154;SDS011;25875;48.202;16.334;2024-02-28T07:11:02;20.58;;;16.70;;
40154;SDS011;25875;48.202;16.334;2024-02-28T07:13:29;23.27;;;17.92;;
40154;SDS011;25875;48.202;16.334;2024-02-28T07:15:57;21.55;;;17.83;;
40154;SDS011;25875;48.202;16.334;2024-02-28T07:18:24;23.85;;;17.70;;
40154;SDS011;25875;48.202;16.334;2024-02-28T07:20:53;26.50;;;20.02;;
40154;SDS011;25875;48.202;16.334;2024-02-28T07:23:20;23.80;;;18.85;;
40154;SDS011;25875;48.202;16.334;2024-02-28T07:25:47;24.23;;;18.80;;
40154;SDS011;25875;48.202;16.334;2024-02-28T07:28:13;24.05;;;19.45;;
40154;SDS011;25875;48.202;16.334;2024-02-28T07:30:40;23.27;;;18.65;;
40154;SDS011;25875;48.202;16.334;2024-02-28T07:33:09;21.83;;;17.83;;
40154;SDS011;25875;48.202;16.334;2024-02-28T07:35:43;21.65;;;17.77;;
40154;SDS011;25875;48.202;16.334;2024-02-28T07:38:10;20.88;;;17.25;;
40154;SDS011;25875;48.202;16.334;2024-02-28T07:40:37;21.45;;;17.90;;
40154;SDS011;25875;48.202;16.334;2024-02-28T07:43:04;21.50;;;17.85;;
40154;SDS011;25875;48.202;16.334;2024-02-28T07:45:31;22.30;;;17.77;;
40154;SDS011;25875;48.202;16.334;2024-02-28T07:47:57;20.30;;;17.13;;
40154;SDS011;25875;48.202;16.334;2024-02-28T07:50:25;23.90;;;18.70;;
40154;SDS011;25875;48.202;16.334;2024-02-28T07:52:53;22.67;;;18.92;;
40154;SDS011;25875;48.202;16.334;2024-02-28T07:55:20;21.83;;;18.80;;
40154;SDS011;25875;48.202;16.334;2024-02-28T07:57:47;21.50;;;17.65;;
40154;SDS011;25875;48.202;16.334;2024-02-28T08:00:16;21.48;;;17.80;;
40154;SDS011;25875;48.202;16.334;2024-02-28T08:02:45;21.17;;;18.05;;
40154;SDS011;25875;48.202;16.334;2024-02-28T08:05:12;23.02;;;18.42;;
40154;SDS011;25875;48.202;16.334;2024-02-28T08:07:41;22.42;;;18.08;;
40154;SDS011;25875;48.202;16.334;2024-02-28T08:10:08;23.67;;;17.90;;
40154;SDS011;25875;48.202;16.334;2024-02-28T08:12:36;22.15;;;18.23;;
40154;SDS011;25875;48.202;16.334;2024-02-28T08:15:03;20.88;;;18.42;;
40154;SDS011;25875;48.202;16.334;2024-02-28T08:17:30;22.92;;;18.85;;
40154;SDS011;25875;48.202;16.334;2024-02-28T08:19:57;19.85;;;16.92;;
40154;SDS011;25875;48.202;16.334;2024-02-28T08:22:24;20.63;;;16.70;;
40154;SDS011;25875;48.202;16.334;2024-02-28T08:24:52;20.77;;;17.40;;
40154;SDS011;25875;48.202;16.334;2024-02-28T08:27:19;21.05;;;17.77;;
40154;SDS011;25875;48.202;16.334;2024-02-28T08:29:48;21.23;;;18.40;;
40154;SDS011;25875;48.202;16.334;2024-02-28T08:32:15;21.52;;;18.05;;
40154;SDS011;25875;48.202;16.334;2024-02-28T08:34:45;20.08;;;17.52;;
40154;SDS011;25875;48.202;16.334;2024-02-28T08:37:12;21.50;;;17.13;;
40154;SDS011;25875;48.202;16.334;2024-02-28T08:39:39;20.05;;;17.33;;
40154;SDS011;25875;48.202;16.334;2024-02-28T08:42:07;19.52;;;17.23;;
40154;SDS011;25875;48.202;16.334;2024-02-28T08:44:34;21.55;;;16.95;;
40154;SDS011;25875;48.202;16.334;2024-02-28T08:47:02;20.55;;;16.95;;
40154;SDS011;25875;48.202;16.334;2024-02-28T08:49:30;23.08;;;17.58;;
40154;SDS011;25875;48.202;16.334;2024-02-28T08:51:57;24.23;;;18.58;;
40154;SDS011;25875;48.202;16.334;2024-02-28T08:54:24;21.20;;;18.35;;
40154;SDS011;25875;48.202;16.334;2024-02-28T08:56:51;20.17;;;17.02;;
40154;SDS011;25875;48.202;16.334;2024-02-28T08:59:19;20.05;;;16.90;;
40154;SDS011;25875;48.202;16.334;2024-02-28T09:01:47;22.55;;;19.63;;
40154;SDS011;25875;48.202;16.334;2024-02-28T09:04:13;19.33;;;16.67;;
40154;SDS011;25875;48.202;16.334;2024-02-28T09:06:40;22.33;;;17.05;;
40154;SDS011;25875;48.202;16.334;2024-02-28T09:09:07;22.02;;;17.50;;
40154;SDS011;25875;48.202;16.334;2024-02-28T09:11:36;19.98;;;16.90;;
40154;SDS011;25875;48.202;16.334;2024-02-28T09:14:03;19.73;;;16.75;;
40154;SDS011;25875;48.202;16.334;2024-02-28T09:16:31;21.35;;;18.48;;
40154;SDS011;25875;48.202;16.334;2024-02-28T09:18:58;19.85;;;16.98;;
40154;SDS011;25875;48.202;16.334;2024-02-28T09:21:25;24.85;;;18.33;;
40154;SDS011;25875;48.202;16.334;2024-02-28T09:23:52;21.75;;;18.05;;
40154;SDS011;25875;48.202;16.334;2024-02-28T09:26:18;21.40;;;17.48;;
40154;SDS011;25875;48.202;16.334;2024-02-28T09:28:45;24.00;;;18.67;;
40154;SDS011;25875;48.202;16.334;2024-02-28T09:31:12;24.90;;;18.15;;
40154;SDS011;25875;48.202;16.334;2024-02-28T09:33:41;21.98;;;17.45;;
40154;SDS011;25875;48.202;16.334;2024-02-28T09:36:11;20.63;;;17.85;;
40154;SDS011;25875;48.202;16.334;2024-02-28T09:38:40;21.25;;;17.13;;
40154;SDS011;25875;48.202;16.334;2024-02-28T09:41:07;21.00;;;16.88;;
40154;SDS011;25875;48.202;16.334;2024-02-28T09:43:40;20.75;;;18.23;;
40154;SDS011;25875;48.202;16.334;2024-02-28T09:46:07;21.02;;;18.20;;
40154;SDS011;25875;48.202;16.334;2024-02-28T09:48:37;21.70;;;18.02;;
40154;SDS011;25875;48.202;16.334;2024-02-28T09:51:07;23.35;;;18.83;;
40154;SDS011;25875;48.202;16.334;2024-02-28T09:53:35;24.48;;;18.25;;
40154;SDS011;25875;48.202;16.334;2024-02-28T09:56:02;20.38;;;17.30;;
40154;SDS011;25875;48.202;16.334;2024-02-28T09:58:29;22.13;;;18.67;;
40154;SDS011;25875;48.202;16.334;2024-02-28T10:00:59;21.73;;;17.33;;
40154;SDS011;25875;48.202;16.334;2024-02-28T10:03:28;25.10;;;19.00;;
40154;SDS011;25875;48.202;16.334;2024-02-28T10:05:57;28.02;;;19.48;;
40154;SDS011;25875;48.202;16.334;2024-02-28T10:08:25;23.48;;;18.80;;
40154;SDS011;25875;48.202;16.334;2024-02-28T10:10:52;20.85;;;17.63;;
40154;SDS011;25875;48.202;16.334;2024-02-28T10:13:21;19.33;;;17.23;;
40154;SDS011;25875;48.202;16.334;2024-02-28T10:15:49;22.25;;;18.73;;
40154;SDS011;25875;48.202;16.334;2024-02-28T10:18:15;19.95;;;17.42;;
40154;SDS011;25875;48.202;16.334;2024-02-28T10:20:42;22.67;;;18.17;;
40154;SDS011;25875;48.202;16.334;2024-02-28T10:23:09;22.88;;;18.85;;
40154;SDS011;25875;48.202;16.334;2024-02-28T10:25:43;22.88;;;18.30;;
40154;SDS011;25875;48.202;16.334;2024-02-28T10:28:10;22.75;;;18.35;;
40154;SDS011;25875;48.202;16.334;2024-02-28T10:30:39;25.20;;;19.45;;
40154;SDS011;25875;48.202;16.334;2024-02-28T10:33:10;22.77;;;17.88;;
40154;SDS011;25875;48.202;16.334;2024-02-28T10:35:38;22.88;;;20.40;;
40154;SDS011;25875;48.202;16.334;2024-02-28T10:38:09;23.60;;;18.20;;
40154;SDS011;25875;48.202;16.334;2024-02-28T10:40:36;23.23;;;19.27;;
40154;SDS011;25875;48.202;16.334;2024-02-28T10:43:05;22.30;;;19.05;;
40154;SDS011;25875;48.202;16.334;2024-02-28T10:45:34;26.33;;;19.52;;
40154;SDS011;25875;48.202;16.334;2024-02-28T10:48:03;23.58;;;20.23;;
40154;SDS011;25875;48.202;16.334;2024-02-28T10:50:31;23.55;;;19.05;;
40154;SDS011;25875;48.202;16.334;2024-02-28T10:52:58;22.50;;;18.70;;
40154;SDS011;25875;48.202;16.334;2024-02-28T10:55:29;25.08;;;19.50;;
40154;SDS011;25875;48.202;16.334;2024-02-28T10:58:01;23.48;;;18.90;;
40154;SDS011;25875;48.202;16.334;2024-02-28T11:00:30;24.67;;;19.02;;
40154;SDS011;25875;48.202;16.334;2024-02-28T11:02:58;24.33;;;17.92;;
40154;SDS011;25875;48.202;16.334;2024-02-28T11:05:35;22.48;;;18.50;;
40154;SDS011;25875;48.202;16.334;2024-02-28T11:08:03;24.38;;;19.05;;
40154;SDS011;25875;48.202;16.334;2024-02-28T11:10:30;24.00;;;20.20;;
40154;SDS011;25875;48.202;16.334;2024-02-28T11:12:58;24.42;;;19.65;;
40154;SDS011;25875;48.202;16.334;2024-02-28T11:15:25;23.38;;;19.65;;
40154;SDS011;25875;48.202;16.334;2024-02-28T11:17:55;26.95;;;19.50;;
40154;SDS011;25875;48.202;16.334;2024-02-28T11:20:36;22.60;;;19.45;;
40154;SDS011;25875;48.202;16.334;2024-02-28T11:23:02;22.98;;;19.17;;
40154;SDS011;25875;48.202;16.334;2024-02-28T11:25:31;23.95;;;18.33;;
40154;SDS011;25875;48.202;16.334;2024-02-28T11:27:58;22.42;;;18.05;;
40154;SDS011;25875;48.202;16.334;2024-02-28T11:30:25;21.75;;;18.95;;
40154;SDS011;25875;48.202;16.334;2024-02-28T11:32:52;20.27;;;17.30;;
40154;SDS011;25875;48.202;16.334;2024-02-28T11:35:24;21.73;;;18.33;;
40154;SDS011;25875;48.202;16.334;2024-02-28T11:37:52;26.00;;;20.38;;
40154;SDS011;25875;48.202;16.334;2024-02-28T11:40:22;25.10;;;20.02;;
40154;SDS011;25875;48.202;16.334;2024-02-28T11:42:50;25.63;;;21.02;;
40154;SDS011;25875;48.202;16.334;2024-02-28T11:45:17;29.80;;;20.05;;
40154;SDS011;25875;48.202;16.334;2024-02-28T11:47:44;26.20;;;19.45;;
40154;SDS011;25875;48.202;16.334;2024-02-28T11:50:12;23.38;;;18.52;;
40154;SDS011;25875;48.202;16.334;2024-02-28T11:52:43;25.70;;;19.02;;
40154;SDS011;25875;48.202;16.334;2024-02-28T11:55:10;23.15;;;18.27;;
40154;SDS011;25875;48.202;16.334;2024-02-28T11:57:36;24.67;;;18.98;;
40154;SDS011;25875;48.202;16.334;2024-02-28T12:00:04;22.10;;;18.92;;
40154;SDS011;25875;48.202;16.334;2024-02-28T12:02:33;22.88;;;18.80;;
40154;SDS011;25875;48.202;16.334;2024-02-28T12:05:00;25.55;;;18.98;;
40154;SDS011;25875;48.202;16.334;2024-02-28T12:07:30;21.80;;;18.17;;
40154;SDS011;25875;48.202;16.334;2024-02-28T12:09:57;27.80;;;20.30;;
40154;SDS011;25875;48.202;16.334;2024-02-28T12:12:24;22.45;;;19.65;;
40154;SDS011;25875;48.202;16.334;2024-02-28T12:14:50;24.70;;;19.27;;
40154;SDS011;25875;48.202;16.334;2024-02-28T12:17:17;26.67;;;18.75;;
40154;SDS011;25875;48.202;16.334;2024-02-28T12:19:45;22.00;;;17.25;;
40154;SDS011;25875;48.202;16.334;2024-02-28T12:22:11;21.55;;;17.50;;
40154;SDS011;25875;48.202;16.334;2024-02-28T12:24:40;21.63;;;17.58;;
40154;SDS011;25875;48.202;16.334;2024-02-28T12:27:06;21.10;;;17.77;;
40154;SDS011;25875;48.202;16.334;2024-02-28T12:29:33;20.30;;;16.27;;
40154;SDS011;25875;48.202;16.334;2024-02-28T12:32:00;21.40;;;17.33;;
40154;SDS011;25875;48.202;16.334;2024-02-28T12:34:26;21.10;;;17.48;;
40154;SDS011;25875;48.202;16.334;2024-02-28T12:36:53;25.45;;;19.55;;
40154;SDS011;25875;48.202;16.334;2024-02-28T12:39:20;23.48;;;19.85;;
40154;SDS011;25875;48.202;16.334;2024-02-28T12:41:48;23.05;;;17.85;;
40154;SDS011;25875;48.202;16.334;2024-02-28T12:44:15;20.85;;;17.90;;
40154;SDS011;25875;48.202;16.334;2024-02-28T12:46:42;22.50;;;17.67;;
40154;SDS011;25875;48.202;16.334;2024-02-28T12:49:09;22.27;;;17.75;;
40154;SDS011;25875;48.202;16.334;2024-02-28T12:51:36;28.70;;;22.00;;
40154;SDS011;25875;48.202;16.334;2024-02-28T12:54:04;29.33;;;21.50;;
40154;SDS011;25875;48.202;16.334;2024-02-28T12:56:32;23.35;;;19.10;;
40154;SDS011;25875;48.202;16.334;2024-02-28T12:59:00;22.55;;;18.20;;
40154;SDS011;25875;48.202;16.334;2024-02-28T13:01:27;26.05;;;19.60;;
40154;SDS011;25875;48.202;16.334;2024-02-28T13:03:56;23.13;;;17.65;;
40154;SDS011;25875;48.202;16.334;2024-02-28T13:06:22;21.73;;;18.08;;
40154;SDS011;25875;48.202;16.334;2024-02-28T13:08:50;22.90;;;17.98;;
40154;SDS011;25875;48.202;16.334;2024-02-28T13:11:18;23.30;;;18.60;;
40154;SDS011;25875;48.202;16.334;2024-02-28T13:13:46;21.63;;;17.17;;
40154;SDS011;25875;48.202;16.334;2024-02-28T13:16:14;24.83;;;19.02;;
40154;SDS011;25875;48.202;16.334;2024-02-28T13:18:41;19.90;;;17.20;;
40154;SDS011;25875;48.202;16.334;2024-02-28T13:21:09;22.80;;;18.70;;
40154;SDS011;25875;48.202;16.334;2024-02-28T13:23:36;23.35;;;19.23;;
40154;SDS011;25875;48.202;16.334;2024-02-28T13:26:04;23.52;;;18.27;;
40154;SDS011;25875;48.202;16.334;2024-02-28T13:28:31;23.02;;;17.27;;
40154;SDS011;25875;48.202;16.334;2024-02-28T13:30:58;20.65;;;17.75;;
40154;SDS011;25875;48.202;16.334;2024-02-28T13:33:26;21.98;;;18.00;;
40154;SDS011;25875;48.202;16.334;2024-02-28T13:35:54;21.02;;;17.75;;
40154;SDS011;25875;48.202;16.334;2024-02-28T13:38:20;19.23;;;16.13;;
40154;SDS011;25875;48.202;16.334;2024-02-28T13:40:48;18.40;;;16.40;;
40154;SDS011;25875;48.202;16.334;2024-02-28T13:43:15;22.40;;;16.25;;
40154;SDS011;25875;48.202;16.334;2024-02-28T13:45:45;20.75;;;16.65;;
40154;SDS011;25875;48.202;16.334;2024-02-28T13:48:15;23.60;;;17.55;;
40154;SDS011;25875;48.202;16.334;2024-02-28T13:50:45;23.83;;;17.95;;
40154;SDS011;25875;48.202;16.334;2024-02-28T13:53:11;21.05;;;15.82;;
40154;SDS011;25875;48.202;16.334;2024-02-28T13:55:39;19.00;;;16.23;;
40154;SDS011;25875;48.202;16.334;2024-02-28T13:58:07;19.23;;;15.50;;
40154;SDS011;25875;48.202;16.334;2024-02-28T14:00:35;19.70;;;15.65;;
40154;SDS011;25875;48.202;16.334;2024-02-28T14:03:04;20.35;;;16.77;;
40154;SDS011;25875;48.202;16.334;2024-02-28T14:05:32;18.63;;;15.27;;
40154;SDS011;25875;48.202;16.334;2024-02-28T14:08:01;19.08;;;16.48;;
40154;SDS011;25875;48.202;16.334;2024-02-28T14:10:29;21.23;;;17.13;;
40154;SDS011;25875;48.202;16.334;2024-02-28T14:12:56;17.95;;;15.95;;
40154;SDS011;25875;48.202;16.334;2024-02-28T14:15:23;23.40;;;17.27;;
40154;SDS011;25875;48.202;16.334;2024-02-28T14:17:50;19.77;;;16.15;;